Terminal Aerodrome Forecast
Issued by NWS Sterling, VA

Current Version | Previous Version | Graphics & Text | Print | Product List | Glossary Off
Versions: 1 2 3 4 5 6 7 8 9 10 11 12 13 14 15 16 17 18 19 20 21 22 23 24 25 26 27

269
FTUS41 KLWX 230811 AAA
TAFIAD
TAF AMD
KIAD 230811Z 2308/2412 17003KT P6SM FEW004 BKN160
     FM231000 VRB03KT P6SM BKN025
     FM231400 32007KT P6SM BKN035
     FM231700 33010KT P6SM SCT035
     FM240100 34005KT P6SM FEW250=

USA.gov is the U.S. government's official web portal to all federal, state and local government web resources and services.